Time;durP1;ratioP1;P1;durP2;ratioP2;P2;SDS_P1;SDS_P2;PMS_P1;PMS_P2;Temp;Humidity;BMP_temperature;BMP_pressure;BME280_temperature;BME280_humidity;BME280_pressure;Samples;Min_cycle;Max_cycle;Signal;HPM_P1;HPM_P2
2023/10/17 00:00:48;;;;;;;4.50;1.83;;;12.20;59.80;;;;;;2280328;56;21010;-67
2023/10/17 00:03:15;;;;;;;2.85;1.60;;;12.20;59.80;;;;;;2514245;55;21823;-66
2023/10/17 00:05:41;;;;;;;3.35;1.83;;;12.20;59.70;;;;;;2280651;55;20986;-66
2023/10/17 00:08:09;;;;;;;4.72;1.90;;;12.10;59.60;;;;;;2280917;55;21017;-66
2023/10/17 00:10:43;;;;;;;4.10;2.17;;;12.10;59.70;;;;;;2280816;56;20958;-66
2023/10/17 00:19:11;;;;;;;3.30;1.67;;;12.00;59.70;;;;;;2514371;55;21416;-66
2023/10/17 00:21:41;;;;;;;2.95;1.48;;;12.00;59.70;;;;;;2512769;55;20946;-66
2023/10/17 00:24:08;;;;;;;3.67;1.90;;;11.90;59.60;;;;;;2513385;54;21009;-66
2023/10/17 00:26:39;;;;;;;3.20;1.73;;;11.90;59.70;;;;;;2513087;55;20981;-66
2023/10/17 00:29:07;;;;;;;4.80;2.35;;;11.80;59.60;;;;;;2505864;54;20982;-67
2023/10/17 00:31:36;;;;;;;3.58;2.00;;;11.80;59.80;;;;;;2281327;55;21005;-66
2023/10/17 00:34:15;;;;;;;3.90;1.80;;;11.80;60.00;;;;;;2280510;55;20974;-67
2023/10/17 00:36:49;;;;;;;3.20;2.05;;;11.80;60.00;;;;;;2513728;55;21021;-66
2023/10/17 00:39:32;;;;;;;3.78;2.12;;;11.80;60.00;;;;;;2517710;54;20990;-66
2023/10/17 00:44:47;;;;;;;3.22;1.70;;;11.70;59.80;;;;;;2280643;56;21111;-66
2023/10/17 00:47:18;;;;;;;2.87;1.50;;;11.70;60.00;;;;;;2280388;55;21079;-66
2023/10/17 00:49:45;;;;;;;3.80;1.75;;;11.60;60.00;;;;;;2280836;56;21049;-66
2023/10/17 00:52:29;;;;;;;2.97;1.65;;;11.60;60.00;;;;;;2503311;54;21018;-66
2023/10/17 00:54:55;;;;;;;3.30;1.60;;;11.60;59.50;;;;;;2511475;55;20994;-66
2023/10/17 00:57:22;;;;;;;3.60;1.70;;;11.60;60.00;;;;;;2512089;54;20998;-66
2023/10/17 01:00:10;;;;;;;2.42;1.33;;;11.50;59.90;;;;;;2280763;55;21005;-65
2023/10/17 01:02:46;;;;;;;3.20;1.62;;;11.50;59.90;;;;;;2512487;55;20985;-66
2023/10/17 01:05:14;;;;;;;3.20;1.73;;;11.50;59.90;;;;;;2512981;54;21700;-66
2023/10/17 01:07:41;;;;;;;2.58;1.48;;;11.40;59.90;;;;;;2511720;55;20981;-66
2023/10/17 01:10:10;;;;;;;2.70;1.40;;;11.40;59.80;;;;;;2503416;54;20958;-66
2023/10/17 01:12:45;;;;;;;3.47;1.37;;;11.30;59.70;;;;;;2280113;56;21053;-66
2023/10/17 01:15:28;;;;;;;2.87;1.55;;;11.30;59.60;;;;;;2280392;56;21053;-66
2023/10/17 01:17:57;;;;;;;2.55;1.27;;;11.20;59.10;;;;;;2279960;55;20961;-66
2023/10/17 01:20:23;;;;;;;2.87;1.42;;;11.20;59.30;;;;;;2280586;56;21029;-66
2023/10/17 01:22:55;;;;;;;3.10;1.60;;;11.10;59.30;;;;;;2280340;55;20981;-66
2023/10/17 01:25:27;;;;;;;2.62;1.60;;;11.00;59.30;;;;;;2513363;55;20961;-65
2023/10/17 01:27:54;;;;;;;3.30;1.90;;;10.90;59.20;;;;;;2512793;55;21709;-66
2023/10/17 01:30:23;;;;;;;3.90;2.08;;;10.90;59.30;;;;;;2512120;55;20978;-66
2023/10/17 01:32:51;;;;;;;3.15;1.70;;;10.80;59.40;;;;;;2505242;55;20990;-66
2023/10/17 01:35:19;;;;;;;3.83;2.28;;;10.80;59.50;;;;;;2513922;55;21465;-66
2023/10/17 01:37:49;;;;;;;4.22;2.30;;;10.70;59.50;;;;;;2279871;56;20986;-66
2023/10/17 01:40:33;;;;;;;5.45;2.70;;;10.70;59.60;;;;;;2513873;55;21714;-66
2023/10/17 01:43:00;;;;;;;4.28;2.15;;;10.60;59.80;;;;;;2513415;55;21804;-66
2023/10/17 01:45:27;;;;;;;3.85;2.50;;;10.60;60.00;;;;;;2280317;56;20958;-66
2023/10/17 01:47:53;;;;;;;4.78;2.90;;;10.60;60.00;;;;;;2510257;55;21539;-66
2023/10/17 01:50:20;;;;;;;4.20;2.72;;;10.60;60.20;;;;;;2276484;55;20954;-66
2023/10/17 01:52:47;;;;;;;4.35;2.60;;;10.60;60.40;;;;;;2272797;54;20962;-66
2023/10/17 01:55:16;;;;;;;5.57;2.67;;;10.50;60.20;;;;;;2514326;55;21052;-67
2023/10/17 01:57:44;;;;;;;4.18;2.35;;;10.50;60.20;;;;;;2512340;55;21012;-66
2023/10/17 02:02:58;;;;;;;4.37;2.58;;;10.50;60.30;;;;;;2513077;55;21014;-65
2023/10/17 02:05:25;;;;;;;3.87;2.40;;;10.50;60.40;;;;;;2513263;55;20989;-66
2023/10/17 02:07:58;;;;;;;4.87;2.60;;;10.50;60.40;;;;;;2512849;55;21013;-66
2023/10/17 02:10:25;;;;;;;4.28;2.55;;;10.50;60.40;;;;;;2514242;55;20950;-66
2023/10/17 02:12:52;;;;;;;3.83;2.20;;;10.50;60.50;;;;;;2281063;55;20929;-66
2023/10/17 02:15:19;;;;;;;4.75;2.70;;;10.50;60.50;;;;;;2513391;55;20998;-66
2023/10/17 02:17:47;;;;;;;3.95;2.25;;;10.50;61.30;;;;;;2279365;55;21694;-66
2023/10/17 02:20:34;;;;;;;4.45;2.67;;;10.50;60.50;;;;;;2512720;55;21017;-66
2023/10/17 02:23:19;;;;;;;4.50;2.67;;;10.40;60.30;;;;;;2513036;54;20950;-66
2023/10/17 02:25:45;;;;;;;4.12;2.20;;;10.40;60.40;;;;;;2279633;55;20961;-65
2023/10/17 02:28:12;;;;;;;4.75;2.35;;;10.50;60.60;;;;;;2280655;55;21422;-66
2023/10/17 02:30:39;;;;;;;3.70;2.10;;;10.40;60.60;;;;;;2512836;55;21839;-66
2023/10/17 02:33:28;;;;;;;4.22;1.87;;;10.40;60.60;;;;;;2280464;56;20950;-66
2023/10/17 02:36:13;;;;;;;4.78;2.17;;;10.40;60.60;;;;;;2280494;55;21034;-66
2023/10/17 02:38:40;;;;;;;4.25;2.25;;;10.40;60.60;;;;;;2280391;55;20954;-66
2023/10/17 02:41:18;;;;;;;3.85;2.12;;;10.40;60.70;;;;;;2513900;55;20950;-66
2023/10/17 02:43:47;;;;;;;4.45;2.40;;;10.40;60.80;;;;;;2512807;55;20946;-66
2023/10/17 02:46:14;;;;;;;4.57;2.42;;;10.40;60.90;;;;;;2280337;56;21014;-65
2023/10/17 02:48:45;;;;;;;4.05;2.28;;;10.40;60.90;;;;;;2279521;56;20923;-66
2023/10/17 02:54:56;;;;;;;3.95;2.10;;;10.40;60.60;;;;;;2514048;55;21006;-66
2023/10/17 02:57:23;;;;;;;4.30;2.30;;;10.40;60.40;;;;;;2280965;55;21824;-65
2023/10/17 02:59:51;;;;;;;4.90;2.22;;;10.40;60.40;;;;;;2513595;55;21420;-66
2023/10/17 03:02:22;;;;;;;4.25;2.03;;;10.30;60.40;;;;;;2281518;55;21005;-66
2023/10/17 03:04:48;;;;;;;3.47;1.95;;;10.30;60.50;;;;;;2512947;55;20982;-66
2023/10/17 03:07:15;;;;;;;4.68;2.45;;;10.30;60.50;;;;;;2280494;56;20950;-65
2023/10/17 03:09:43;;;;;;;5.40;2.40;;;10.30;60.60;;;;;;2280065;55;21026;-66
2023/10/17 03:12:17;;;;;;;4.87;2.37;;;10.20;60.50;;;;;;2513297;55;21037;-66
2023/10/17 03:18:00;;;;;;;3.80;2.20;;;10.20;60.50;;;;;;2530431;54;21501;-66
2023/10/17 03:20:36;;;;;;;4.22;2.47;;;10.10;60.50;;;;;;2281839;55;20958;-66
2023/10/17 03:23:08;;;;;;;3.80;2.22;;;10.10;60.60;;;;;;2281029;55;21121;-66
2023/10/17 03:25:37;;;;;;;8.15;3.30;;;10.10;60.70;;;;;;2280055;56;20960;-66
2023/10/17 03:28:13;;;;;;;4.93;2.72;;;10.10;60.80;;;;;;2281580;56;20966;-65
2023/10/17 03:30:40;;;;;;;4.50;2.58;;;10.00;61.00;;;;;;2513601;55;21010;-66
2023/10/17 03:33:08;;;;;;;5.12;2.55;;;10.00;61.00;;;;;;2280875;55;21443;-66
2023/10/17 03:35:49;;;;;;;4.25;2.72;;;10.00;61.10;;;;;;2281174;55;21029;-66
2023/10/17 03:38:16;;;;;;;4.30;2.40;;;10.00;61.20;;;;;;2281229;55;21459;-66
2023/10/17 03:40:53;;;;;;;4.03;2.58;;;10.00;61.30;;;;;;2511062;55;21011;-66
2023/10/17 03:43:28;;;;;;;3.83;2.47;;;10.00;61.30;;;;;;2276644;55;20961;-66
2023/10/17 03:46:03;;;;;;;5.05;2.35;;;10.00;61.30;;;;;;2513725;55;20989;-66
2023/10/17 03:48:30;;;;;;;4.47;2.47;;;10.00;61.30;;;;;;2513173;55;20946;-66
2023/10/17 03:51:08;;;;;;;3.95;2.47;;;10.00;61.10;;;;;;2513493;55;20950;-66
2023/10/17 03:53:47;;;;;;;4.57;2.22;;;10.00;61.00;;;;;;2281075;55;21514;-66
2023/10/17 03:56:24;;;;;;;4.18;2.37;;;10.00;60.90;;;;;;2514317;55;21010;-66
2023/10/17 03:58:57;;;;;;;3.37;1.90;;;10.00;60.90;;;;;;2512731;55;21081;-66
2023/10/17 04:01:26;;;;;;;3.15;1.98;;;10.00;60.90;;;;;;2281543;56;20974;-66
2023/10/17 04:03:55;;;;;;;3.83;2.35;;;9.90;62.00;;;;;;2280090;55;20974;-66
2023/10/17 04:06:32;;;;;;;3.70;2.10;;;9.90;62.10;;;;;;2514253;54;21121;-66
2023/10/17 04:09:25;;;;;;;3.28;1.90;;;9.90;62.10;;;;;;2512417;55;20944;-65
2023/10/17 04:11:58;;;;;;;3.50;2.03;;;9.90;62.20;;;;;;2508061;54;22108;-66
2023/10/17 04:18:12;;;;;;;3.85;2.05;;;9.80;61.20;;;;;;2513687;55;20096;-66
2023/10/17 04:20:39;;;;;;;4.40;2.53;;;9.80;62.10;;;;;;2281807;55;21285;-65
2023/10/17 04:23:05;;;;;;;5.03;2.40;;;9.80;62.20;;;;;;2514580;55;21091;-66
2023/10/17 04:25:37;;;;;;;4.72;2.70;;;9.80;62.30;;;;;;2281905;56;20961;-66
2023/10/17 04:28:04;;;;;;;4.22;2.17;;;9.70;62.20;;;;;;2281582;55;21018;-66
2023/10/17 04:30:34;;;;;;;4.35;2.50;;;9.70;62.20;;;;;;2281920;55;20930;-65
2023/10/17 04:33:12;;;;;;;3.62;2.12;;;9.70;62.20;;;;;;2281316;55;21006;-66
2023/10/17 04:35:55;;;;;;;5.85;2.83;;;9.70;62.20;;;;;;2507995;54;21773;-66
2023/10/17 04:38:36;;;;;;;4.70;2.97;;;9.70;62.20;;;;;;2280669;55;20958;-65
2023/10/17 04:44:02;;;;;;;4.90;2.62;;;9.60;62.20;;;;;;2512975;55;21854;-66
2023/10/17 04:46:29;;;;;;;4.12;2.80;;;9.60;62.20;;;;;;2280469;55;20994;-66
2023/10/17 04:49:06;;;;;;;4.62;2.70;;;9.50;62.20;;;;;;2280047;56;22136;-66
2023/10/17 04:51:38;;;;;;;4.95;3.35;;;9.50;62.30;;;;;;2513996;55;21475;-65
2023/10/17 04:54:22;;;;;;;4.45;2.58;;;9.50;62.30;;;;;;2281264;55;21061;-66
2023/10/17 04:57:05;;;;;;;4.43;2.50;;;9.50;62.10;;;;;;2513206;55;21005;-66
2023/10/17 04:59:43;;;;;;;3.50;2.08;;;9.40;62.00;;;;;;2282201;55;20910;-65
2023/10/17 05:05:38;;;;;;;3.85;2.10;;;9.40;62.60;;;;;;2282114;55;21277;-65
2023/10/17 05:08:18;;;;;;;4.00;2.37;;;9.30;61.90;;;;;;2514256;55;20954;-66
2023/10/17 06:16:52;;;;;;;5.22;2.67;;;8.50;62.30;;;;;;2280192;55;21009;-65
2023/10/17 06:19:24;;;;;;;5.10;3.50;;;8.40;62.20;;;;;;2514456;55;21086;-65
2023/10/17 06:37:20;;;;;;;4.95;2.58;;;8.30;62.50;;;;;;2513403;55;21443;-65
2023/10/17 06:39:47;;;;;;;6.62;2.97;;;8.30;62.50;;;;;;2512713;55;20995;-66
2023/10/17 06:42:27;;;;;;;5.53;3.00;;;8.30;62.70;;;;;;2281470;56;20985;-65
2023/10/17 06:44:54;;;;;;;6.70;3.70;;;8.30;63.00;;;;;;2513287;55;21061;-66
2023/10/17 06:47:41;;;;;;;7.40;3.97;;;8.30;63.10;;;;;;2281131;56;21081;-65
2023/10/17 06:53:01;;;;;;;6.85;3.60;;;8.30;63.30;;;;;;2280394;56;21021;-65
2023/10/17 06:55:43;;;;;;;6.85;3.50;;;8.40;63.50;;;;;;2513871;55;20989;-66
2023/10/17 06:58:14;;;;;;;7.60;4.12;;;8.40;63.60;;;;;;2281218;56;21018;-66
2023/10/17 07:00:53;;;;;;;6.97;3.97;;;8.40;63.50;;;;;;2514444;55;20953;-65
2023/10/17 07:03:26;;;;;;;8.02;4.22;;;8.40;63.50;;;;;;2281567;56;20930;-65
2023/10/17 07:05:55;;;;;;;6.57;4.12;;;8.40;63.60;;;;;;2280371;55;20962;-66
2023/10/17 07:08:30;;;;;;;5.95;3.90;;;8.50;63.80;;;;;;2277041;55;21004;-66
2023/10/17 07:11:09;;;;;;;8.18;4.07;;;8.50;63.70;;;;;;2512668;55;21037;-66
2023/10/17 07:22:53;;;;;;;6.00;3.35;;;8.60;64.00;;;;;;2510763;55;21041;-66
2023/10/17 07:25:19;;;;;;;5.68;3.28;;;8.60;63.90;;;;;;2499623;54;21017;-66
2023/10/17 07:27:47;;;;;;;4.97;2.83;;;8.70;64.20;;;;;;2513581;55;21010;-66
2023/10/17 07:30:13;;;;;;;6.00;3.22;;;8.70;64.20;;;;;;2514769;54;21018;-65
2023/10/17 07:32:48;;;;;;;5.60;2.97;;;8.70;64.30;;;;;;2514619;55;20926;-65
2023/10/17 07:35:16;;;;;;;5.57;3.35;;;8.70;64.30;;;;;;2514812;55;20919;-66
2023/10/17 07:37:54;;;;;;;6.43;3.22;;;8.80;64.50;;;;;;2280914;55;20950;-66
2023/10/17 07:40:34;;;;;;;5.95;3.10;;;8.80;64.50;;;;;;2506461;54;20963;-66
2023/10/17 07:43:00;;;;;;;6.75;3.65;;;8.90;64.60;;;;;;2510505;54;20989;-66
2023/10/17 07:45:37;;;;;;;7.25;3.78;;;8.90;64.70;;;;;;2281496;55;20946;-66
2023/10/17 07:48:19;;;;;;;6.00;3.92;;;9.00;64.80;;;;;;2513061;55;21348;-66
2023/10/17 07:50:51;;;;;;;5.87;3.58;;;9.00;64.80;;;;;;2280729;56;20978;-66
2023/10/17 07:53:21;;;;;;;5.68;3.87;;;9.10;65.00;;;;;;2281449;55;21828;-66
2023/10/17 07:56:03;;;;;;;6.47;3.70;;;9.10;65.10;;;;;;2513871;55;21858;-66
2023/10/17 07:58:38;;;;;;;4.75;2.80;;;9.20;65.20;;;;;;2514229;54;20954;-66
2023/10/17 08:01:08;;;;;;;6.93;3.97;;;9.20;65.20;;;;;;2280720;55;20962;-66
2023/10/17 08:03:41;;;;;;;5.75;4.03;;;9.30;65.30;;;;;;2514550;55;21032;-66
2023/10/17 08:06:08;;;;;;;6.90;4.28;;;9.40;65.50;;;;;;2280637;55;21494;-66
2023/10/17 08:08:35;;;;;;;6.68;4.05;;;9.40;65.50;;;;;;2281259;55;20985;-66
2023/10/17 08:11:08;;;;;;;7.28;4.43;;;9.50;65.60;;;;;;2513062;54;21021;-66
2023/10/17 08:13:34;;;;;;;7.22;4.20;;;9.60;65.60;;;;;;2514432;55;20978;-66
2023/10/17 08:16:07;;;;;;;7.80;4.45;;;9.60;65.50;;;;;;2280789;56;21745;-66
2023/10/17 08:18:40;;;;;;;5.62;3.75;;;9.70;65.60;;;;;;2514069;55;20962;-66
2023/10/17 08:23:52;;;;;;;7.68;4.68;;;9.90;65.80;;;;;;2280789;55;20962;-66
2023/10/17 08:26:18;;;;;;;7.45;4.05;;;9.90;65.70;;;;;;2514563;55;21737;-66
2023/10/17 08:28:50;;;;;;;8.00;4.60;;;9.90;65.80;;;;;;2513416;55;20934;-66
2023/10/17 08:31:23;;;;;;;8.75;4.60;;;10.10;64.80;;;;;;2282426;56;21030;-66
2023/10/17 08:34:09;;;;;;;9.35;5.20;;;10.20;64.80;;;;;;2280753;56;20978;-66
2023/10/17 08:42:14;;;;;;;6.40;3.72;;;10.40;64.90;;;;;;2280900;55;21010;-66
2023/10/17 08:44:47;;;;;;;5.40;3.67;;;10.50;65.00;;;;;;2280629;56;20985;-66
2023/10/17 08:47:16;;;;;;;5.78;3.47;;;10.60;65.10;;;;;;2281066;55;21440;-66
2023/10/17 08:49:46;;;;;;;6.90;4.57;;;10.70;65.00;;;;;;2281183;56;20949;-66
2023/10/17 08:52:23;;;;;;;6.28;4.12;;;10.70;64.90;;;;;;2280836;56;20970;-66
2023/10/17 08:54:51;;;;;;;9.40;4.25;;;10.80;64.70;;;;;;2281138;55;20946;-67
2023/10/17 08:57:21;;;;;;;5.75;3.60;;;10.90;64.90;;;;;;2514533;55;20960;-66
2023/10/17 09:03:02;;;;;;;5.93;3.30;;;11.00;64.90;;;;;;2280148;56;21681;-71
2023/10/17 09:05:29;;;;;;;6.43;4.15;;;11.10;64.90;;;;;;2280751;55;20979;-68
2023/10/17 09:07:59;;;;;;;6.97;4.22;;;11.20;65.00;;;;;;2509081;55;20966;-67
2023/10/17 09:10:39;;;;;;;7.22;4.32;;;11.30;65.00;;;;;;2513927;55;21014;-68
2023/10/17 09:26:21;;;;;;;6.22;3.20;;;11.60;65.10;;;;;;2281121;56;20965;-68
2023/10/17 09:28:48;;;;;;;4.57;2.87;;;12.00;65.60;;;;;;2513405;55;20938;-67
2023/10/17 09:31:16;;;;;;;7.05;4.03;;;12.10;65.40;;;;;;2513817;55;21131;-67
2023/10/17 09:33:48;;;;;;;6.30;3.72;;;12.10;65.40;;;;;;2513981;55;20958;-67
2023/10/17 09:36:17;;;;;;;6.45;4.03;;;12.20;65.60;;;;;;2280596;55;20953;-67
2023/10/17 09:38:44;;;;;;;7.07;4.30;;;12.30;65.60;;;;;;2280747;56;20961;-67
2023/10/17 09:41:11;;;;;;;6.50;3.92;;;12.40;65.60;;;;;;2513655;55;21021;-67
2023/10/17 09:43:41;;;;;;;7.05;3.67;;;12.50;65.70;;;;;;2280325;55;21109;-66
2023/10/17 09:46:09;;;;;;;5.30;3.72;;;12.60;65.70;;;;;;2507477;54;21068;-68
2023/10/17 09:48:36;;;;;;;5.50;3.62;;;12.70;65.70;;;;;;2494480;54;20975;-67
2023/10/17 09:51:03;;;;;;;5.32;3.53;;;12.70;65.60;;;;;;2512731;55;20970;-70
2023/10/17 09:53:33;;;;;;;5.50;3.50;;;12.80;65.50;;;;;;2281766;55;21491;-70
2023/10/17 09:56:45;;;;;;;6.15;3.70;;;12.90;65.40;;;;;;2279841;55;20982;-68
2023/10/17 09:59:18;;;;;;;5.72;3.35;;;13.00;64.30;;;;;;2513850;55;20970;-67
2023/10/17 10:01:46;;;;;;;6.70;3.40;;;13.10;65.10;;;;;;2281313;56;21748;-68
2023/10/17 10:04:12;;;;;;;6.05;3.53;;;13.20;65.20;;;;;;2513000;55;21756;-67
2023/10/17 10:06:39;;;;;;;6.30;3.97;;;13.20;65.00;;;;;;2281581;55;20963;-68
2023/10/17 10:09:26;;;;;;;8.00;4.45;;;13.30;65.00;;;;;;2280424;55;21769;-70
2023/10/17 10:11:54;;;;;;;5.50;3.72;;;13.40;64.30;;;;;;2280227;55;20991;-70
2023/10/17 10:14:58;;;;;;;6.15;3.55;;;13.50;65.00;;;;;;2281900;56;21001;-68
2023/10/17 10:17:44;;;;;;;5.07;3.45;;;13.50;63.70;;;;;;2513890;55;20978;-70
2023/10/17 10:20:13;;;;;;;4.85;3.33;;;13.60;64.10;;;;;;2513075;55;21372;-68
2023/10/17 10:22:59;;;;;;;6.85;3.53;;;13.70;64.90;;;;;;2513856;55;20958;-69
2023/10/17 10:25:26;;;;;;;4.72;2.80;;;13.80;64.30;;;;;;2280711;56;20911;-68
2023/10/17 10:28:23;;;;;;;5.97;3.40;;;13.90;65.00;;;;;;2507406;55;20951;-68
2023/10/17 10:30:51;;;;;;;6.15;3.30;;;14.00;64.20;;;;;;2280836;55;21553;-72
2023/10/17 10:33:17;;;;;;;5.30;3.20;;;14.00;65.00;;;;;;2281025;56;20974;-67
2023/10/17 10:35:46;;;;;;;6.53;3.40;;;14.10;65.00;;;;;;2282440;55;21027;-68
2023/10/17 10:38:13;;;;;;;5.90;3.80;;;14.20;64.90;;;;;;2508189;55;21026;-68
2023/10/17 10:40:40;;;;;;;6.22;3.50;;;14.30;64.80;;;;;;2514262;55;20938;-71
2023/10/17 10:43:11;;;;;;;6.80;3.58;;;14.40;64.70;;;;;;2280986;55;20966;-68
2023/10/17 10:45:47;;;;;;;5.37;3.30;;;14.40;64.50;;;;;;2281112;55;20950;-68
2023/10/17 10:48:17;;;;;;;6.40;3.50;;;14.50;64.30;;;;;;2281033;56;20965;-68
2023/10/17 10:50:49;;;;;;;4.68;3.00;;;14.70;64.50;;;;;;2280612;56;20970;-73
2023/10/17 10:53:37;;;;;;;6.55;3.53;;;14.60;64.50;;;;;;2512855;55;21444;-67
2023/10/17 10:56:09;;;;;;;5.57;3.00;;;14.70;63.70;;;;;;2280664;55;20962;-68
2023/10/17 10:58:44;;;;;;;6.05;3.80;;;14.80;64.10;;;;;;2514146;55;21369;-69
2023/10/17 11:01:12;;;;;;;5.68;3.78;;;14.90;63.70;;;;;;2513846;55;21280;-68
2023/10/17 11:03:42;;;;;;;4.82;3.28;;;14.90;64.00;;;;;;2514144;55;20982;-67
2023/10/17 11:06:10;;;;;;;7.07;3.92;;;15.00;63.80;;;;;;2513558;55;21284;-68
2023/10/17 11:08:46;;;;;;;5.78;3.65;;;15.00;63.70;;;;;;2513747;55;20950;-71
2023/10/17 11:11:14;;;;;;;5.85;3.42;;;15.10;63.00;;;;;;2280846;55;20942;-68
2023/10/17 11:13:45;;;;;;;6.00;3.75;;;15.10;63.50;;;;;;2508454;54;21055;-67
2023/10/17 11:16:16;;;;;;;6.70;4.07;;;15.20;63.50;;;;;;2277990;55;20978;-67
2023/10/17 11:18:43;;;;;;;6.85;4.47;;;15.20;63.40;;;;;;2514145;55;21022;-69
2023/10/17 11:21:11;;;;;;;6.07;3.83;;;15.30;63.40;;;;;;2274493;55;21845;-68
2023/10/17 11:23:40;;;;;;;6.80;4.12;;;15.30;63.10;;;;;;2283625;55;21122;-67
2023/10/17 11:26:12;;;;;;;7.10;4.15;;;15.30;63.00;;;;;;2275214;55;21740;-66
2023/10/17 11:28:46;;;;;;;7.90;4.25;;;15.30;63.00;;;;;;2512305;55;20993;-69
2023/10/17 11:31:27;;;;;;;7.25;3.95;;;15.30;62.80;;;;;;2278244;55;20971;-69
2023/10/17 11:33:59;;;;;;;6.22;3.72;;;15.40;62.60;;;;;;2277643;55;20966;-63
2023/10/17 11:36:36;;;;;;;5.65;4.07;;;15.40;62.50;;;;;;2514246;55;20947;-68
2023/10/17 11:39:07;;;;;;;10.60;4.37;;;15.40;62.40;;;;;;2280063;56;21419;-64
2023/10/17 11:41:46;;;;;;;6.25;4.18;;;15.40;62.40;;;;;;2514120;55;21029;-67
2023/10/17 11:44:15;;;;;;;5.40;3.35;;;15.40;61.80;;;;;;2513414;55;21069;-67
2023/10/17 11:47:26;;;;;;;7.30;3.78;;;15.50;62.40;;;;;;2280419;56;20958;-65
2023/10/17 11:49:52;;;;;;;6.53;3.65;;;15.50;62.30;;;;;;2280094;55;21056;-67
2023/10/17 11:52:19;;;;;;;5.20;3.58;;;15.50;62.40;;;;;;2514235;55;21774;-64
2023/10/17 11:55:46;;;;;;;5.75;3.47;;;15.50;62.20;;;;;;2280332;55;20965;-66
2023/10/17 11:58:22;;;;;;;5.43;3.25;;;15.50;60.90;;;;;;2280193;56;21037;-68
2023/10/17 12:00:50;;;;;;;4.82;2.72;;;15.60;61.90;;;;;;2287376;55;21422;-67
2023/10/17 12:03:20;;;;;;;6.40;3.30;;;15.50;62.20;;;;;;2270820;55;21187;-66
2023/10/17 12:05:50;;;;;;;5.87;3.28;;;15.60;62.30;;;;;;2280344;56;20978;-67
2023/10/17 12:08:22;;;;;;;4.60;2.90;;;15.60;61.90;;;;;;2280043;56;20966;-66
2023/10/17 12:10:53;;;;;;;5.60;3.15;;;15.60;61.90;;;;;;2280069;55;20966;-64
2023/10/17 12:13:21;;;;;;;5.30;3.17;;;15.70;61.90;;;;;;2513817;55;21124;-64
2023/10/17 12:15:47;;;;;;;5.53;3.58;;;15.70;61.90;;;;;;2513133;55;20969;-65
2023/10/17 12:18:13;;;;;;;5.07;3.30;;;15.70;61.90;;;;;;2513208;55;20962;-67
2023/10/17 12:20:43;;;;;;;5.68;3.58;;;15.80;61.80;;;;;;2281150;56;20931;-65
2023/10/17 12:23:10;;;;;;;5.72;3.47;;;15.80;61.70;;;;;;2281227;55;20982;-65
2023/10/17 12:25:42;;;;;;;7.00;3.40;;;15.80;61.50;;;;;;2281043;55;21044;-64
2023/10/17 12:28:08;;;;;;;5.78;3.50;;;15.80;61.40;;;;;;2279893;55;21001;-67
2023/10/17 12:30:36;;;;;;;5.57;3.25;;;15.80;61.20;;;;;;2514414;55;21121;-64
2023/10/17 12:33:04;;;;;;;3.85;2.42;;;15.80;61.10;;;;;;2280925;55;21053;-65
2023/10/17 12:35:30;;;;;;;6.78;3.37;;;15.90;61.20;;;;;;2281833;55;21522;-64
2023/10/17 12:38:06;;;;;;;4.70;3.08;;;15.80;61.10;;;;;;2279657;55;20974;-64
2023/10/17 12:40:32;;;;;;;4.87;3.12;;;15.90;61.00;;;;;;2281256;56;21457;-65
2023/10/17 12:43:01;;;;;;;6.07;3.25;;;15.90;61.00;;;;;;2280326;55;20947;-66
2023/10/17 12:45:27;;;;;;;4.50;2.75;;;15.90;61.00;;;;;;2281432;56;21018;-66
2023/10/17 12:47:54;;;;;;;5.95;3.20;;;15.90;61.20;;;;;;2280982;56;21057;-66
2023/10/17 12:50:20;;;;;;;5.68;3.62;;;15.90;60.80;;;;;;2513655;55;20983;-65
2023/10/17 12:52:47;;;;;;;5.10;2.95;;;15.90;60.90;;;;;;2513411;54;21014;-64
2023/10/17 12:55:13;;;;;;;5.97;3.08;;;15.90;60.70;;;;;;2284477;55;21030;-63
2023/10/17 12:57:43;;;;;;;6.82;3.35;;;15.90;60.60;;;;;;2505146;54;20954;-64
2023/10/17 13:00:15;;;;;;;4.90;2.95;;;15.90;60.60;;;;;;2280861;55;20990;-64
2023/10/17 13:02:42;;;;;;;5.80;3.00;;;15.90;60.70;;;;;;2281028;55;20942;-64
2023/10/17 13:05:10;;;;;;;6.18;3.67;;;15.90;60.60;;;;;;2513611;55;20974;-65
2023/10/17 13:07:37;;;;;;;7.50;3.45;;;15.90;60.70;;;;;;2281311;56;20970;-65
2023/10/17 13:10:04;;;;;;;5.65;3.35;;;15.90;60.60;;;;;;2279355;56;20955;-64
2023/10/17 13:12:30;;;;;;;4.70;2.90;;;16.00;60.60;;;;;;2281529;55;21502;-67
2023/10/17 13:14:57;;;;;;;5.37;2.80;;;16.00;60.70;;;;;;2276096;54;21062;-65
2023/10/17 13:17:24;;;;;;;5.55;2.67;;;16.00;60.70;;;;;;2280928;55;21002;-65
2023/10/17 13:19:51;;;;;;;4.57;2.75;;;16.00;60.70;;;;;;2278334;55;20970;-65
2023/10/17 13:22:21;;;;;;;4.50;2.78;;;16.00;60.70;;;;;;2277780;54;21005;-64
2023/10/17 13:24:50;;;;;;;4.57;2.95;;;16.10;60.70;;;;;;2281029;55;20986;-67
2023/10/17 13:27:19;;;;;;;4.37;2.47;;;16.10;60.80;;;;;;2281368;56;21021;-65
2023/10/17 13:29:47;;;;;;;4.80;2.92;;;16.10;60.70;;;;;;2513668;54;20950;-66
2023/10/17 13:32:13;;;;;;;4.30;2.28;;;16.10;60.70;;;;;;2513997;55;20942;-64
2023/10/17 13:34:40;;;;;;;4.05;2.40;;;16.20;60.80;;;;;;2281189;55;20970;-65
2023/10/17 13:37:09;;;;;;;4.32;2.47;;;16.20;60.80;;;;;;2513354;55;21022;-65
2023/10/17 13:39:36;;;;;;;6.12;2.75;;;16.20;60.80;;;;;;2281784;55;20998;-65
2023/10/17 13:42:03;;;;;;;4.80;2.58;;;16.20;60.60;;;;;;2512959;55;21014;-65
2023/10/17 13:44:29;;;;;;;4.18;2.50;;;16.30;60.70;;;;;;2281101;55;20989;-64
2023/10/17 13:46:57;;;;;;;3.80;2.40;;;16.30;60.50;;;;;;2512964;55;20973;-66
2023/10/17 13:49:24;;;;;;;4.68;2.37;;;16.30;60.40;;;;;;2280431;55;20967;-65
2023/10/17 13:51:50;;;;;;;4.32;2.55;;;16.30;60.40;;;;;;2277459;54;21006;-67
2023/10/17 13:54:17;;;;;;;4.78;2.62;;;16.40;60.30;;;;;;2281007;56;21447;-65
2023/10/17 13:56:43;;;;;;;5.00;3.05;;;16.40;60.20;;;;;;2280848;56;20958;-67
2023/10/17 13:59:10;;;;;;;6.15;3.10;;;16.30;60.00;;;;;;2513673;55;21794;-65
2023/10/17 14:01:42;;;;;;;4.87;2.60;;;16.40;60.10;;;;;;2514600;55;20994;-66
2023/10/17 14:04:10;;;;;;;6.10;2.97;;;16.40;59.90;;;;;;2281141;55;20973;-65
2023/10/17 14:06:40;;;;;;;5.35;2.78;;;16.30;59.90;;;;;;2281504;55;21048;-65
2023/10/17 14:09:15;;;;;;;4.30;2.67;;;16.40;59.80;;;;;;2513604;55;21893;-66
2023/10/17 14:11:46;;;;;;;4.45;2.55;;;16.30;59.70;;;;;;2504239;55;21055;-65
2023/10/17 14:14:15;;;;;;;4.62;3.12;;;16.40;59.80;;;;;;2280678;56;20998;-66
2023/10/17 14:16:42;;;;;;;5.00;2.72;;;16.30;59.80;;;;;;2280709;55;21582;-64
2023/10/17 14:19:28;;;;;;;4.85;2.65;;;16.30;59.90;;;;;;2280336;55;21021;-65
2023/10/17 14:26:03;;;;;;;4.80;2.78;;;16.30;60.00;;;;;;2279766;56;20978;-65
2023/10/17 14:28:30;;;;;;;6.15;3.37;;;16.40;60.00;;;;;;2513745;55;20970;-64
2023/10/17 14:30:56;;;;;;;7.18;2.87;;;16.30;60.00;;;;;;2280823;55;21988;-64
2023/10/17 14:33:23;;;;;;;5.43;2.92;;;16.30;60.50;;;;;;2280457;56;21030;-65
2023/10/17 14:35:50;;;;;;;6.45;3.00;;;16.30;59.90;;;;;;2279891;55;20942;-66
2023/10/17 14:38:18;;;;;;;5.03;2.78;;;16.30;59.90;;;;;;2281390;55;20961;-65
2023/10/17 14:40:47;;;;;;;4.90;2.83;;;16.30;59.80;;;;;;2513637;55;21038;-65
2023/10/17 14:43:14;;;;;;;6.00;3.45;;;16.30;59.90;;;;;;2281461;55;20973;-64
2023/10/17 14:45:41;;;;;;;6.53;3.05;;;16.30;59.80;;;;;;2514239;55;22055;-64
2023/10/17 14:48:09;;;;;;;6.35;2.87;;;16.30;59.80;;;;;;2280821;55;21061;-66
2023/10/17 14:50:41;;;;;;;4.82;2.80;;;16.30;59.80;;;;;;2514271;55;21042;-64
2023/10/17 14:53:07;;;;;;;6.05;2.92;;;16.30;59.60;;;;;;2280252;56;20997;-65
2023/10/17 14:55:46;;;;;;;4.78;2.83;;;16.30;59.90;;;;;;2281640;56;20965;-65
2023/10/17 14:58:13;;;;;;;5.50;2.90;;;16.30;59.30;;;;;;2514185;55;20970;-66
2023/10/17 15:00:40;;;;;;;5.10;2.80;;;16.30;59.90;;;;;;2513974;55;20950;-64
2023/10/17 15:03:06;;;;;;;5.62;2.78;;;16.30;59.90;;;;;;2512647;55;20962;-67
2023/10/17 15:05:37;;;;;;;5.28;3.00;;;16.30;59.90;;;;;;2280463;55;21596;-64
2023/10/17 15:08:05;;;;;;;5.22;2.92;;;16.30;60.00;;;;;;2504504;54;21027;-65
2023/10/17 15:10:31;;;;;;;5.87;2.87;;;16.30;59.90;;;;;;2280734;55;20953;-65
2023/10/17 15:12:58;;;;;;;5.05;2.80;;;16.30;59.90;;;;;;2279820;55;21017;-65
2023/10/17 15:15:24;;;;;;;5.55;2.70;;;16.30;59.90;;;;;;2513773;55;21501;-64
2023/10/17 15:17:51;;;;;;;4.62;2.50;;;16.30;60.00;;;;;;2513005;55;21878;-65
2023/10/17 15:20:17;;;;;;;4.57;2.53;;;16.30;60.00;;;;;;2280388;55;20949;-65
2023/10/17 15:22:44;;;;;;;3.95;2.42;;;16.40;60.10;;;;;;2281235;55;20970;-65
2023/10/17 15:25:14;;;;;;;4.07;2.35;;;16.30;60.00;;;;;;2279690;56;21278;-66
2023/10/17 15:27:47;;;;;;;4.62;2.92;;;16.40;60.00;;;;;;2513663;55;21037;-64
2023/10/17 15:30:13;;;;;;;5.40;2.70;;;16.40;59.80;;;;;;2513869;55;21010;-67
2023/10/17 15:32:46;;;;;;;4.40;2.37;;;16.40;60.00;;;;;;2282032;56;20958;-65
2023/10/17 15:35:15;;;;;;;3.87;2.35;;;16.40;60.00;;;;;;2513982;55;20959;-64
2023/10/17 15:37:47;;;;;;;3.83;2.30;;;16.40;60.00;;;;;;2281035;55;20946;-64
2023/10/17 15:40:19;;;;;;;5.80;2.35;;;16.40;59.90;;;;;;2513035;55;21059;-65